Time;durP1;ratioP1;P1;durP2;ratioP2;P2;SDS_P1;SDS_P2;PMS_P1;PMS_P2;Temp;Humidity;BMP_temperature;BMP_pressure;BME280_temperature;BME280_humidity;BME280_pressure;Samples;Min_cycle;Max_cycle;Signal;HPM_P1;HPM_P2
2021/10/04 00:00:08;;;;;;;;;;;;;;;-142.75;100.00;76869.50;5076166;28;19927;-83
2021/10/04 00:02:33;;;;;;;;;;;;;;;-142.75;100.00;76865.56;5068793;28;20352;-83
2021/10/04 00:04:58;;;;;;;;;;;;;;;-142.75;100.00;76871.47;5069232;28;19924;-81
2021/10/04 00:07:24;;;;;;;;;;;;;;;-142.75;100.00;76881.31;5073733;28;19921;-82
2021/10/04 00:09:49;;;;;;;;;;;;;;;-142.75;100.00;76885.25;5069998;28;20402;-81
2021/10/04 00:12:14;;;;;;;;;;;;;;;-142.75;100.00;76873.44;5067063;28;19955;-82
2021/10/04 00:14:39;;;;;;;;;;;;;;;-142.75;100.00;76885.25;5080189;28;19917;-82
2021/10/04 00:17:05;;;;;;;;;;;;;;;-142.75;100.00;76885.25;5070384;28;20055;-82
2021/10/04 00:19:30;;;;;;;;;;;;;;;-142.75;100.00;76881.31;5068663;28;19935;-81
2021/10/04 00:21:55;;;;;;;;;;;;;;;-142.75;100.00;76883.28;5063413;28;19917;-81
2021/10/04 00:24:21;;;;;;;;;;;;;;;-142.75;100.00;76881.31;5065166;28;20011;-82
2021/10/04 00:26:46;;;;;;;;;;;;;;;-142.75;100.00;76889.19;5069105;28;19927;-83
2021/10/04 00:29:11;;;;;;;;;;;;;;;-142.75;100.00;76889.19;5063952;28;20015;-82
2021/10/04 00:31:36;;;;;;;;;;;;;;;-142.75;100.00;76887.22;5068200;28;19948;-82
2021/10/04 00:34:02;;;;;;;;;;;;;;;-142.75;100.00;76899.03;5071134;28;19923;-80
2021/10/04 00:36:27;;;;;;;;;;;;;;;-142.75;100.00;76885.25;5077687;28;19916;-82
2021/10/04 00:38:52;;;;;;;;;;;;;;;-142.75;100.00;76889.19;5072452;28;20644;-81
2021/10/04 00:41:18;;;;;;;;;;;;;;;-142.75;100.00;76904.94;5070246;28;19917;-84
2021/10/04 00:43:43;;;;;;;;;;;;;;;-142.75;100.00;76906.91;5075618;28;19939;-84
2021/10/04 00:46:08;;;;;;;;;;;;;;;-142.75;100.00;76901.00;5072669;28;19928;-81
2021/10/04 00:48:33;;;;;;;;;;;;;;;-142.75;100.00;76908.88;5060581;28;19978;-82
2021/10/04 00:50:58;;;;;;;;;;;;;;;-142.75;100.00;76922.66;5067277;28;19917;-82
2021/10/04 00:53:24;;;;;;;;;;;;;;;-142.75;100.00;76938.41;5061985;28;19920;-83
2021/10/04 00:55:49;;;;;;;;;;;;;;;-142.75;100.00;76938.41;5074384;28;19919;-82
2021/10/04 00:58:14;;;;;;;;;;;;;;;-142.75;100.00;76932.50;5076646;28;19927;-82
2021/10/04 01:00:39;;;;;;;;;;;;;;;-142.75;100.00;76940.38;5071518;28;20011;-83
2021/10/04 01:03:05;;;;;;;;;;;;;;;-142.75;100.00;76936.44;5072216;28;19917;-83
2021/10/04 01:05:30;;;;;;;;;;;;;;;-142.75;100.00;76944.31;5072799;28;19917;-82
2021/10/04 01:07:55;;;;;;;;;;;;;;;-142.75;100.00;76940.38;5063295;28;19916;-82
2021/10/04 01:10:21;;;;;;;;;;;;;;;-142.75;100.00;76936.44;5069976;28;19916;-82
2021/10/04 01:12:47;;;;;;;;;;;;;;;-142.75;100.00;76946.28;5073905;28;20293;-83
2021/10/04 01:15:13;;;;;;;;;;;;;;;-142.75;100.00;76952.19;5068735;28;19925;-82
2021/10/04 01:17:39;;;;;;;;;;;;;;;-142.75;100.00;76940.38;5067638;28;19916;-79
2021/10/04 01:20:14;;;;;;;;;;;;;;;-142.75;100.00;76942.34;5064619;28;20015;-84
2021/10/04 01:22:40;;;;;;;;;;;;;;;-142.75;100.00;76928.56;5067710;28;19917;-82
2021/10/04 01:25:06;;;;;;;;;;;;;;;-142.75;100.00;76936.44;5067799;28;19939;-82
2021/10/04 01:27:31;;;;;;;;;;;;;;;-142.75;100.00;76936.44;5068238;28;20080;-82
2021/10/04 01:29:57;;;;;;;;;;;;;;;-142.75;100.00;76940.38;5067494;28;19916;-83
2021/10/04 01:32:22;;;;;;;;;;;;;;;-142.75;100.00;76936.44;5073356;28;19917;-83
2021/10/04 01:34:47;;;;;;;;;;;;;;;-142.75;100.00;76956.13;5066409;28;19923;-81
2021/10/04 01:37:12;;;;;;;;;;;;;;;-142.75;100.00;76964.00;5064993;28;20027;-83
2021/10/04 01:39:37;;;;;;;;;;;;;;;-142.75;100.00;76964.00;5062460;28;19929;-81
2021/10/04 01:42:03;;;;;;;;;;;;;;;-142.75;100.00;76958.09;5065177;28;19917;-81
2021/10/04 01:44:28;;;;;;;;;;;;;;;-142.75;100.00;76960.06;5066609;28;19917;-83
2021/10/04 01:46:53;;;;;;;;;;;;;;;-142.75;100.00;76960.06;5071242;28;20384;-83
2021/10/04 01:49:18;;;;;;;;;;;;;;;-142.75;100.00;76944.31;5065555;28;19923;-81
2021/10/04 01:51:44;;;;;;;;;;;;;;;-142.75;100.00;76950.22;5072175;28;19920;-81
2021/10/04 01:54:09;;;;;;;;;;;;;;;-142.75;100.00;76950.22;5067677;28;20340;-84
2021/10/04 01:56:34;;;;;;;;;;;;;;;-142.75;100.00;76956.13;5075049;28;19996;-80
2021/10/04 01:59:00;;;;;;;;;;;;;;;-142.75;100.00;76952.19;5069482;28;19920;-84
2021/10/04 02:01:25;;;;;;;;;;;;;;;-142.75;100.00;76952.19;5063768;28;19924;-81
2021/10/04 02:03:50;;;;;;;;;;;;;;;-142.75;100.00;76952.19;5064692;28;19916;-85
2021/10/04 02:06:17;;;;;;;;;;;;;;;-142.75;100.00;76944.31;5069800;28;19923;-82
2021/10/04 02:08:42;;;;;;;;;;;;;;;-142.75;100.00;76946.28;5067932;28;19925;-82
2021/10/04 02:11:07;;;;;;;;;;;;;;;-142.75;100.00;76948.25;5067051;28;19923;-80
2021/10/04 02:13:32;;;;;;;;;;;;;;;-142.75;100.00;76952.19;5065936;28;20290;-81
2021/10/04 02:15:58;;;;;;;;;;;;;;;-142.75;100.00;76946.28;5063010;28;19927;-81
2021/10/04 02:18:23;;;;;;;;;;;;;;;-142.75;100.00;76932.50;5078392;28;19976;-84
2021/10/04 02:20:48;;;;;;;;;;;;;;;-142.75;100.00;76940.38;5066798;28;19932;-80
2021/10/04 02:23:13;;;;;;;;;;;;;;;-142.75;100.00;76948.25;5070119;28;19925;-82
2021/10/04 02:25:40;;;;;;;;;;;;;;;-142.75;100.00;76942.34;5060968;28;19917;-81
2021/10/04 02:28:07;;;;;;;;;;;;;;;-142.75;100.00;76944.31;5059431;28;20024;-80
2021/10/04 02:30:33;;;;;;;;;;;;;;;-142.75;100.00;76942.34;5059116;28;19973;-82
2021/10/04 02:32:58;;;;;;;;;;;;;;;-142.75;100.00;76950.22;5065312;28;19967;-83
2021/10/04 02:35:23;;;;;;;;;;;;;;;-142.75;100.00;76954.16;5064870;28;19917;-82
2021/10/04 02:37:50;;;;;;;;;;;;;;;-142.75;100.00;76960.06;5067922;28;19924;-83
2021/10/04 02:40:15;;;;;;;;;;;;;;;-142.75;100.00;76960.06;5059529;28;20018;-82
2021/10/04 02:42:41;;;;;;;;;;;;;;;-142.75;100.00;76962.03;5068026;28;20294;-82
2021/10/04 02:45:08;;;;;;;;;;;;;;;-142.75;100.00;76962.03;5061366;28;19987;-83
2021/10/04 02:47:33;;;;;;;;;;;;;;;-142.75;100.00;76969.91;5071342;28;19924;-84
2021/10/04 02:49:58;;;;;;;;;;;;;;;-142.75;100.00;76962.03;5069393;28;20402;-82
2021/10/04 02:52:23;;;;;;;;;;;;;;;-142.75;100.00;76965.97;5061886;28;19917;-82
2021/10/04 02:54:49;;;;;;;;;;;;;;;-142.75;100.00;76977.78;5061037;28;19924;-81
2021/10/04 02:57:14;;;;;;;;;;;;;;;-142.75;100.00;76991.56;5061340;28;20416;-84
2021/10/04 02:59:39;;;;;;;;;;;;;;;-142.75;100.00;76983.69;5071081;28;19956;-81
2021/10/04 03:02:05;;;;;;;;;;;;;;;-142.75;100.00;76999.44;5069018;28;19967;-82
2021/10/04 03:04:30;;;;;;;;;;;;;;;-142.75;100.00;76997.47;5068789;28;19985;-82
2021/10/04 03:06:55;;;;;;;;;;;;;;;-142.75;100.00;76999.44;5068322;28;19917;-84
2021/10/04 03:09:20;;;;;;;;;;;;;;;-142.75;100.00;76997.47;5063601;28;20351;-83
2021/10/04 03:11:46;;;;;;;;;;;;;;;-142.75;100.00;77007.31;5068882;28;19925;-82
2021/10/04 03:14:12;;;;;;;;;;;;;;;-142.75;100.00;77003.38;5074407;28;20401;-82
2021/10/04 03:16:37;;;;;;;;;;;;;;;-142.75;100.00;77003.38;5072105;28;19916;-80
2021/10/04 03:19:02;;;;;;;;;;;;;;;-142.75;100.00;76995.50;5070355;28;19927;-81
2021/10/04 03:21:28;;;;;;;;;;;;;;;-142.75;100.00;76995.50;5067608;28;19916;-81
2021/10/04 03:23:53;;;;;;;;;;;;;;;-142.75;100.00;76991.56;5073317;28;19916;-82
2021/10/04 03:26:18;;;;;;;;;;;;;;;-142.75;100.00;76997.47;5070290;28;19967;-82
2021/10/04 03:28:43;;;;;;;;;;;;;;;-142.75;100.00;77003.38;5068106;28;19999;-82
2021/10/04 03:31:09;;;;;;;;;;;;;;;-142.75;100.00;77005.34;5074181;28;19917;-80
2021/10/04 03:33:34;;;;;;;;;;;;;;;-142.75;100.00;77003.38;5063253;28;19932;-80
2021/10/04 03:35:59;;;;;;;;;;;;;;;-142.75;100.00;77005.34;5078474;28;19920;-83
2021/10/04 03:38:24;;;;;;;;;;;;;;;-142.75;100.00;76997.47;5064496;28;19992;-83
2021/10/04 03:40:49;;;;;;;;;;;;;;;-142.75;100.00;77009.28;5069706;28;19920;-83
2021/10/04 03:43:15;;;;;;;;;;;;;;;-142.75;100.00;77009.28;5069001;28;19939;-82
2021/10/04 03:45:40;;;;;;;;;;;;;;;-142.75;100.00;77015.19;5069118;28;19938;-83
2021/10/04 03:48:05;;;;;;;;;;;;;;;-142.75;100.00;77019.13;5073983;28;19923;-83
2021/10/04 03:50:30;;;;;;;;;;;;;;;-142.75;100.00;77009.28;5070574;28;19938;-82
2021/10/04 03:52:55;;;;;;;;;;;;;;;-142.75;100.00;77007.31;5069668;28;20011;-82
2021/10/04 03:55:21;;;;;;;;;;;;;;;-142.75;100.00;77019.13;5069855;28;20394;-81
2021/10/04 03:57:46;;;;;;;;;;;;;;;-142.75;100.00;77019.13;5070196;28;20014;-82
2021/10/04 04:00:16;;;;;;;;;;;;;;;-142.75;100.00;77017.16;5060734;28;20394;-83
2021/10/04 04:02:42;;;;;;;;;;;;;;;-142.75;100.00;77023.06;5073842;28;20461;-83
2021/10/04 04:05:07;;;;;;;;;;;;;;;-142.75;100.00;77036.84;5105484;22;19956;-81
2021/10/04 04:07:33;;;;;;;;;;;;;;;-142.75;100.00;77038.81;5100858;28;19920;-81
2021/10/04 04:09:58;;;;;;;;;;;;;;;-142.75;100.00;77032.91;5083164;28;19925;-79
2021/10/04 04:12:23;;;;;;;;;;;;;;;-142.75;100.00;77038.81;5083719;28;20031;-78
2021/10/04 04:14:48;;;;;;;;;;;;;;;-142.75;100.00;77040.78;5088865;28;19919;-79
2021/10/04 04:17:13;;;;;;;;;;;;;;;-142.75;100.00;77036.84;5109674;28;19931;-80
2021/10/04 04:19:38;;;;;;;;;;;;;;;-142.75;100.00;77052.59;5084571;28;20407;-80
2021/10/04 04:22:04;;;;;;;;;;;;;;;-142.75;100.00;77058.50;5097778;28;19915;-80
2021/10/04 04:24:29;;;;;;;;;;;;;;;-142.75;100.00;77078.19;5080218;28;20305;-77
2021/10/04 04:26:55;;;;;;;;;;;;;;;-142.75;100.00;77084.09;5079700;28;19924;-79
2021/10/04 04:29:22;;;;;;;;;;;;;;;-142.75;100.00;77086.06;5102922;28;19969;-81
2021/10/04 04:31:48;;;;;;;;;;;;;;;-142.75;100.00;77097.88;5103210;28;19955;-80
2021/10/04 04:34:13;;;;;;;;;;;;;;;-142.75;100.00;77107.72;5080167;28;19947;-80
2021/10/04 04:36:40;;;;;;;;;;;;;;;-142.75;100.00;77105.75;5104587;28;19920;-80
2021/10/04 04:39:05;;;;;;;;;;;;;;;-142.75;100.00;77121.50;5108619;28;20023;-80
2021/10/04 04:41:30;;;;;;;;;;;;;;;-142.75;100.00;77143.16;5088797;28;19962;-77
2021/10/04 04:43:55;;;;;;;;;;;;;;;-142.75;100.00;77151.03;5103427;28;20336;-78
2021/10/04 04:46:21;;;;;;;;;;;;;;;-142.75;100.00;77168.75;5084609;28;19966;-80
2021/10/04 04:48:46;;;;;;;;;;;;;;;-142.75;100.00;77182.53;5088250;28;20528;-81
2021/10/04 04:51:11;;;;;;;;;;;;;;;-142.75;100.00;77182.53;5088622;28;20438;-81
2021/10/04 04:53:36;;;;;;;;;;;;;;;-142.75;100.00;77190.41;5090376;28;19916;-80
2021/10/04 04:56:01;;;;;;;;;;;;;;;-142.75;100.00;77172.69;5102101;28;19931;-78
2021/10/04 04:58:27;;;;;;;;;;;;;;;-142.75;100.00;77160.88;5087444;28;19915;-78
2021/10/04 05:00:52;;;;;;;;;;;;;;;-142.75;100.00;77170.72;5098208;28;19960;-80
2021/10/04 05:03:18;;;;;;;;;;;;;;;-142.75;100.00;77162.84;5088527;28;20017;-79
2021/10/04 05:05:43;;;;;;;;;;;;;;;-142.75;100.00;77170.72;5083902;28;20052;-77
2021/10/04 05:08:08;;;;;;;;;;;;;;;-142.75;100.00;77156.94;5080173;28;19927;-81
2021/10/04 05:10:34;;;;;;;;;;;;;;;-142.75;100.00;77176.63;5086671;28;19916;-78
2021/10/04 05:12:59;;;;;;;;;;;;;;;-142.75;100.00;77156.94;5104134;28;19923;-79
2021/10/04 05:15:24;;;;;;;;;;;;;;;-142.75;100.00;77158.91;5099039;28;20374;-79
2021/10/04 05:17:49;;;;;;;;;;;;;;;-142.75;100.00;77151.03;5080961;28;19916;-80
2021/10/04 05:20:14;;;;;;;;;;;;;;;-142.75;100.00;77143.16;5081146;28;19959;-78
2021/10/04 05:22:40;;;;;;;;;;;;;;;-142.75;100.00;77151.03;5097954;28;19916;-81
2021/10/04 05:25:06;;;;;;;;;;;;;;;-142.75;100.00;77156.94;5077192;28;19924;-78
2021/10/04 05:27:32;;;;;;;;;;;;;;;-142.75;100.00;77153.00;5103908;28;20381;-79
2021/10/04 05:29:57;;;;;;;;;;;;;;;-142.75;100.00;77154.97;5084723;28;19922;-79
2021/10/04 05:32:22;;;;;;;;;;;;;;;-142.75;100.00;77156.94;5085110;28;20474;-78
2021/10/04 05:34:47;;;;;;;;;;;;;;;-142.75;100.00;77162.84;5083014;28;19916;-81
2021/10/04 05:37:13;;;;;;;;;;;;;;;-142.75;100.00;77174.66;5084589;28;19923;-78
2021/10/04 05:39:38;;;;;;;;;;;;;;;-142.75;100.00;77156.94;5101395;28;19959;-80
2021/10/04 05:42:03;;;;;;;;;;;;;;;-142.75;100.00;77166.78;5099101;28;19923;-81
2021/10/04 05:44:28;;;;;;;;;;;;;;;-142.75;100.00;77186.47;5081698;28;19923;-79
2021/10/04 05:46:53;;;;;;;;;;;;;;;-142.75;100.00;77192.38;5082513;28;19915;-77
2021/10/04 05:49:19;;;;;;;;;;;;;;;-142.75;100.00;77227.81;5077902;28;19950;-79
2021/10/04 05:51:44;;;;;;;;;;;;;;;-142.75;100.00;77243.56;5084661;28;19922;-79
2021/10/04 05:54:09;;;;;;;;;;;;;;;-142.75;100.00;77249.47;5097292;28;19942;-79
2021/10/04 05:56:34;;;;;;;;;;;;;;;-142.75;100.00;77235.69;5085015;28;20304;-80
2021/10/04 05:58:59;;;;;;;;;;;;;;;-142.75;100.00;77237.66;5083518;28;20011;-79
2021/10/04 06:01:25;;;;;;;;;;;;;;;-142.75;100.00;77243.56;5082580;28;20406;-78
2021/10/04 06:03:50;;;;;;;;;;;;;;;-142.75;100.00;77239.63;5100957;28;19951;-78
2021/10/04 06:06:15;;;;;;;;;;;;;;;-142.75;100.00;77233.72;5099997;28;20029;-80
2021/10/04 06:08:40;;;;;;;;;;;;;;;-142.75;100.00;77227.81;5087041;28;19961;-78
2021/10/04 06:11:05;;;;;;;;;;;;;;;-142.75;100.00;77239.63;5082431;28;19922;-80
2021/10/04 06:13:31;;;;;;;;;;;;;;;-142.75;100.00;77261.28;5082221;28;19923;-80
2021/10/04 06:15:56;;;;;;;;;;;;;;;-142.75;100.00;77265.22;5105437;28;19916;-80
2021/10/04 06:18:22;;;;;;;;;;;;;;;-142.75;100.00;77271.13;5084208;28;19985;-80
2021/10/04 06:20:47;;;;;;;;;;;;;;;-142.75;100.00;77296.72;5095975;28;19928;-81
2021/10/04 06:23:13;;;;;;;;;;;;;;;-142.75;100.00;77282.94;5084479;28;19915;-80
2021/10/04 06:25:38;;;;;;;;;;;;;;;-142.75;100.00;77306.56;5101805;28;19970;-78
2021/10/04 06:28:03;;;;;;;;;;;;;;;-142.75;100.00;77306.56;5081759;28;19915;-79
2021/10/04 06:30:29;;;;;;;;;;;;;;;-142.75;100.00;77304.59;5077499;28;19920;-79
2021/10/04 06:32:55;;;;;;;;;;;;;;;-142.75;100.00;77292.78;5102789;28;20282;-81
2021/10/04 06:35:20;;;;;;;;;;;;;;;-142.75;100.00;77298.69;5085802;28;19915;-77
2021/10/04 06:37:45;;;;;;;;;;;;;;;-142.75;100.00;77292.78;5099224;28;19927;-79
2021/10/04 06:40:11;;;;;;;;;;;;;;;-142.75;100.00;77302.63;5083442;28;19941;-80
2021/10/04 06:42:36;;;;;;;;;;;;;;;-142.75;100.00;77300.66;5079221;28;19916;-81
2021/10/04 06:45:02;;;;;;;;;;;;;;;-142.75;100.00;77298.69;5082529;28;19924;-80
2021/10/04 06:47:27;;;;;;;;;;;;;;;-142.75;100.00;77302.63;5085124;28;19922;-79
2021/10/04 06:49:52;;;;;;;;;;;;;;;-142.75;100.00;77275.06;5079478;28;20020;-81
2021/10/04 06:52:18;;;;;;;;;;;;;;;-142.75;100.00;77192.38;5092522;28;20012;-80
2021/10/04 06:54:43;;;;;;;;;;;;;;;-142.75;100.00;77149.06;5102944;28;19917;-78
2021/10/04 06:57:08;;;;;;;;;;;;;;;-142.75;100.00;77097.88;5103984;28;19920;-79
2021/10/04 06:59:34;;;;;;;;;;;;;;;-142.75;100.00;77052.59;5101180;28;19969;-80
2021/10/04 07:02:00;;;;;;;;;;;;;;;-142.75;100.00;76895.09;5089336;28;19920;-78
2021/10/04 07:04:25;;;;;;;;;;;;;;;-142.75;100.00;76956.13;5105870;28;20312;-79
2021/10/04 07:06:50;;;;;;;;;;;;;;;-142.75;100.00;76960.06;5103559;28;19917;-79
2021/10/04 07:09:15;;;;;;;;;;;;;;;-142.75;100.00;76997.47;5079607;28;19920;-79
2021/10/04 07:11:40;;;;;;;;;;;;;;;-142.75;100.00;76901.00;5087593;28;19940;-80
2021/10/04 07:14:05;;;;;;;;;;;;;;;-142.75;98.34;76782.91;5084165;28;19916;-80
2021/10/04 07:16:31;;;;;;;;;;;;;;;-142.75;90.85;76743.53;5083523;28;19916;-81
2021/10/04 07:18:56;;;;;;;;;;;;;;;-142.75;90.27;76778.97;5103768;28;20300;-79
2021/10/04 07:21:21;;;;;;;;;;;;;;;-142.75;87.30;76765.19;5099523;28;19936;-78
2021/10/04 07:23:46;;;;;;;;;;;;;;;-142.75;84.87;76652.97;5084263;28;20380;-79
2021/10/04 07:26:13;;;;;;;;;;;;;;;-142.75;87.69;76676.59;5082857;28;20007;-81
2021/10/04 07:28:38;;;;;;;;;;;;;;;-142.75;82.43;76658.88;5081526;28;19916;-80
2021/10/04 07:31:03;;;;;;;;;;;;;;;-142.75;79.73;76674.63;5104770;28;20403;-80
2021/10/04 07:33:28;;;;;;;;;;;;;;;-142.75;81.19;76749.44;5089328;28;20381;-80
2021/10/04 07:35:55;;;;;;;;;;;;;;;-142.75;82.58;76670.69;5087339;28;20433;-78
2021/10/04 07:38:21;;;;;;;;;;;;;;;-142.75;80.61;76481.72;5087633;28;20394;-81
2021/10/04 07:40:46;;;;;;;;;;;;;;;-142.75;73.60;76345.91;5083856;28;19977;-79
2021/10/04 07:43:11;;;;;;;;;;;;;;;-142.75;72.77;76542.72;5088332;28;19916;-81
2021/10/04 07:45:37;;;;;;;;;;;;;;;-142.75;78.80;76528.97;5099765;28;20000;-79
2021/10/04 07:48:02;;;;;;;;;;;;;;;-142.75;73.04;76576.19;5101822;28;19923;-78
2021/10/04 07:50:31;;;;;;;;;;;;;;;-142.75;74.14;76625.41;5102374;28;19923;-81
2021/10/04 07:52:56;;;;;;;;;;;;;;;-142.75;73.55;76430.53;5085633;28;19923;-79
2021/10/04 07:55:22;;;;;;;;;;;;;;;-142.75;70.17;76402.97;5084253;28;19915;-80
2021/10/04 07:57:48;;;;;;;;;;;;;;;-142.75;68.12;76377.38;5087893;28;19948;-79
2021/10/04 08:00:15;;;;;;;;;;;;;;;-142.75;68.83;76308.50;5104654;28;20537;-81
2021/10/04 08:02:40;;;;;;;;;;;;;;;-142.75;70.77;76515.19;5083517;28;20556;-81
2021/10/04 08:05:06;;;;;;;;;;;;;;;-142.75;71.98;76334.09;5104208;28;19923;-79
2021/10/04 08:07:31;;;;;;;;;;;;;;;-142.75;66.81;76292.75;5086003;28;19922;-81
2021/10/04 08:09:56;;;;;;;;;;;;;;;-142.75;65.65;76162.84;5088970;28;19916;-81
2021/10/04 08:12:25;;;;;;;;;;;;;;;-142.75;63.20;76032.94;5103277;28;19938;-81
2021/10/04 08:14:51;;;;;;;;;;;;;;;-142.75;60.47;75930.59;5084879;28;19916;-80
2021/10/04 08:17:17;;;;;;;;;;;;;;;-142.75;57.44;75849.91;5087704;28;20326;-80
2021/10/04 08:19:42;;;;;;;;;;;;;;;-142.75;58.28;75983.72;5086497;28;19926;-80
2021/10/04 08:22:07;;;;;;;;;;;;;;;-142.75;55.68;76027.03;5080836;28;19941;-80
2021/10/04 08:24:32;;;;;;;;;;;;;;;-142.75;56.60;75853.84;5088277;28;20300;-81
2021/10/04 08:26:57;;;;;;;;;;;;;;;-142.75;54.32;75812.50;5090018;28;20002;-82
2021/10/04 08:29:22;;;;;;;;;;;;;;;-142.75;53.91;75903.03;5081717;28;19916;-81
2021/10/04 08:31:48;;;;;;;;;;;;;;;-142.75;53.72;75912.88;5100821;28;19916;-80
2021/10/04 08:34:13;;;;;;;;;;;;;;;-142.75;57.35;76097.88;5090153;28;19920;-80
2021/10/04 08:36:38;;;;;;;;;;;;;;;-142.75;60.60;76030.97;5081733;28;19920;-80
2021/10/04 08:39:04;;;;;;;;;;;;;;;-142.75;57.90;75971.91;5098952;28;19965;-80
2021/10/04 08:41:31;;;;;;;;;;;;;;;-142.75;56.09;75950.28;5084382;28;19927;-81
2021/10/04 08:43:57;;;;;;;;;;;;;;;-142.75;53.75;75786.91;5104653;28;19946;-80
2021/10/04 08:46:23;;;;;;;;;;;;;;;-142.75;54.59;75897.13;5076032;28;19934;-81
2021/10/04 08:48:48;;;;;;;;;;;;;;;-142.75;53.22;75721.97;5108172;28;19920;-81
2021/10/04 08:51:13;;;;;;;;;;;;;;;-142.75;50.74;75743.63;5105881;28;19916;-81
2021/10/04 08:53:39;;;;;;;;;;;;;;;-142.75;53.57;75855.81;5100297;28;19919;-80
2021/10/04 08:56:05;;;;;;;;;;;;;;;-142.75;50.99;75838.09;5100024;28;19912;-81
2021/10/04 08:58:32;;;;;;;;;;;;;;;-142.75;53.50;75786.91;5102389;28;19916;-82
2021/10/04 09:01:01;;;;;;;;;;;;;;;-142.75;49.90;75733.78;5097734;28;19920;-81
2021/10/04 09:03:26;;;;;;;;;;;;;;;-142.75;48.53;75609.78;5082259;28;19916;-80
2021/10/04 09:05:57;;;;;;;;;;;;;;;-142.75;48.93;75688.50;5082899;28;19916;-79
2021/10/04 09:08:22;;;;;;;;;;;;;;;-142.75;52.10;75794.78;5094533;28;20003;-80
2021/10/04 09:10:53;;;;;;;;;;;;;;;-142.75;48.96;75712.13;5081178;28;19946;-83
2021/10/04 09:13:18;;;;;;;;;;;;;;;-142.75;50.54;75597.97;5095531;28;20289;-80
2021/10/04 09:15:45;;;;;;;;;;;;;;;-142.75;48.71;75847.94;5080084;28;19916;-80
2021/10/04 09:18:18;;;;;;;;;;;;;;;-142.75;53.77;75741.66;5076015;28;19916;-81
2021/10/04 09:20:48;;;;;;;;;;;;;;;-142.75;48.38;75629.47;5101576;28;19926;-80
2021/10/04 09:23:26;;;;;;;;;;;;;;;-142.75;47.73;75515.31;5080335;28;19945;-80
2021/10/04 09:25:51;;;;;;;;;;;;;;;-142.75;46.63;75645.22;5105788;28;19922;-79
2021/10/04 09:28:25;;;;;;;;;;;;;;;-142.75;46.22;75505.50;5083437;28;19916;-82
2021/10/04 09:30:54;;;;;;;;;;;;;;;-142.75;49.62;75609.78;5081963;28;19915;-80
2021/10/04 09:33:19;;;;;;;;;;;;;;;-142.75;46.90;75456.28;5086673;28;19927;-81
2021/10/04 09:35:45;;;;;;;;;;;;;;;-142.75;44.47;75718.03;5099511;28;20308;-82
2021/10/04 09:38:16;;;;;;;;;;;;;;;-142.75;46.73;75564.53;5083358;28;20437;-81
2021/10/04 09:40:42;;;;;;;;;;;;;;;-142.75;44.08;75629.47;5079054;28;19950;-80
2021/10/04 09:43:09;;;;;;;;;;;;;;;-142.75;45.19;75631.44;5081809;28;19973;-80
2021/10/04 09:45:34;;;;;;;;;;;;;;;-142.75;48.26;75682.59;5079079;28;19915;-81
2021/10/04 09:48:06;;;;;;;;;;;;;;;-142.75;45.62;75659.00;5083313;28;20002;-80
2021/10/04 09:50:32;;;;;;;;;;;;;;;-142.75;47.36;75790.84;5088614;28;19974;-77
2021/10/04 09:52:59;;;;;;;;;;;;;;;-142.75;47.50;75727.88;5082766;28;20384;-80
2021/10/04 09:55:29;;;;;;;;;;;;;;;-142.75;47.17;75651.13;5073695;28;19924;-80
2021/10/04 09:57:57;;;;;;;;;;;;;;;-142.75;44.35;75635.38;5099893;28;20021;-79
2021/10/04 10:00:22;;;;;;;;;;;;;;;-142.75;45.80;75495.66;5086849;28;20010;-79
2021/10/04 10:02:54;;;;;;;;;;;;;;;-142.75;44.14;75611.75;5100953;28;20010;-78
2021/10/04 10:05:20;;;;;;;;;;;;;;;-142.75;43.83;75607.81;5097628;28;20400;-78
2021/10/04 10:07:45;;;;;;;;;;;;;;;-142.75;42.93;75590.13;5100377;28;20377;-79
2021/10/04 10:10:10;;;;;;;;;;;;;;;-142.75;46.50;75649.16;5100596;28;19924;-77
2021/10/04 10:12:36;;;;;;;;;;;;;;;-142.75;45.02;75582.25;5080974;28;19920;-77
2021/10/04 10:15:01;;;;;;;;;;;;;;;-142.75;42.58;75477.94;5091918;28;19920;-77
2021/10/04 10:17:28;;;;;;;;;;;;;;;-142.75;42.82;75422.84;5100833;28;19924;-77
2021/10/04 10:19:55;;;;;;;;;;;;;;;-142.75;43.19;75519.25;5102071;28;19977;-77
2021/10/04 10:22:20;;;;;;;;;;;;;;;-142.75;43.40;75558.63;5104084;28;19926;-76
2021/10/04 10:24:46;;;;;;;;;;;;;;;-142.75;42.53;75562.56;5089705;28;19922;-77
2021/10/04 10:27:12;;;;;;;;;;;;;;;-142.75;45.43;75668.84;5089413;28;19915;-76
2021/10/04 10:29:38;;;;;;;;;;;;;;;-142.75;47.42;75651.13;5107095;28;20015;-75
2021/10/04 10:32:04;;;;;;;;;;;;;;;-142.75;50.69;76015.22;5099593;28;20464;-77
2021/10/04 10:34:29;;;;;;;;;;;;;;;-142.75;52.68;75857.78;5081156;28;20014;-77
2021/10/04 10:36:56;;;;;;;;;;;;;;;-142.75;49.74;75814.47;5094049;28;20010;-75
2021/10/04 10:39:31;;;;;;;;;;;;;;;-142.75;48.74;75786.91;5097260;28;20023;-76
2021/10/04 10:42:15;;;;;;;;;;;;;;;-142.75;48.97;75708.19;5096328;28;19920;-74
2021/10/04 10:44:55;;;;;;;;;;;;;;;-142.75;46.55;75710.16;5097483;28;19916;-77
2021/10/04 10:50:17;;;;;;;;;;;;;;;-142.75;47.30;75605.84;5100308;28;19924;-77
2021/10/04 10:52:47;;;;;;;;;;;;;;;-142.75;46.42;75529.09;5091641;28;20424;-77
2021/10/04 10:55:18;;;;;;;;;;;;;;;-142.75;43.91;75723.94;5091052;28;19923;-78
2021/10/04 10:57:49;;;;;;;;;;;;;;;-142.75;46.64;75690.47;5103593;28;19922;-76
2021/10/04 11:00:18;;;;;;;;;;;;;;;-142.75;46.73;75607.81;5090874;28;19920;-75
2021/10/04 11:02:55;;;;;;;;;;;;;;;-142.75;43.57;75629.47;5109366;28;19924;-75
2021/10/04 11:05:38;;;;;;;;;;;;;;;-142.75;44.52;75680.63;5074889;28;19916;-78
2021/10/04 11:08:08;;;;;;;;;;;;;;;-142.75;43.75;75684.56;5085262;28;20283;-77
2021/10/04 11:10:34;;;;;;;;;;;;;;;-142.75;44.16;75668.84;5075512;28;19919;-77
2021/10/04 11:13:09;;;;;;;;;;;;;;;-142.75;43.56;75578.31;5095100;28;20044;-75
2021/10/04 11:15:35;;;;;;;;;;;;;;;-142.75;43.26;75639.31;5102912;28;19915;-76
2021/10/04 11:18:11;;;;;;;;;;;;;;;-142.75;44.26;75570.44;5102077;28;19923;-75
2021/10/04 11:20:36;;;;;;;;;;;;;;;-142.75;42.32;75505.50;5097737;28;19931;-78
2021/10/04 11:23:03;;;;;;;;;;;;;;;-142.75;42.35;75554.69;5103586;28;19916;-76
2021/10/04 11:25:29;;;;;;;;;;;;;;;-142.75;42.48;75596.00;5080096;28;20301;-77
2021/10/04 11:27:54;;;;;;;;;;;;;;;-142.75;44.23;75572.41;5081328;28;19998;-76
2021/10/04 11:30:19;;;;;;;;;;;;;;;-142.75;43.73;75540.91;5082649;28;20418;-76
2021/10/04 11:33:03;;;;;;;;;;;;;;;-142.75;42.32;75550.75;5082294;28;19916;-77
2021/10/04 11:35:29;;;;;;;;;;;;;;;-142.75;41.56;75649.16;5100097;28;19973;-77
2021/10/04 11:37:54;;;;;;;;;;;;;;;-142.75;45.01;75775.09;5086566;28;19971;-76
2021/10/04 11:40:19;;;;;;;;;;;;;;;-142.75;45.80;75838.09;5122538;22;20000;-78
2021/10/04 11:42:44;;;;;;;;;;;;;;;-142.75;49.97;75916.81;5093359;28;20408;-77
2021/10/04 11:45:10;;;;;;;;;;;;;;;-142.75;50.93;75960.13;5083035;28;20062;-76
2021/10/04 11:47:38;;;;;;;;;;;;;;;-142.75;51.71;75983.72;5082650;28;19916;-74
2021/10/04 11:50:08;;;;;;;;;;;;;;;-142.75;52.83;76007.34;5101270;28;20407;-78
2021/10/04 11:52:35;;;;;;;;;;;;;;;-142.75;54.19;76034.91;5080258;28;20389;-75
2021/10/04 11:55:00;;;;;;;;;;;;;;;-142.75;54.19;76135.28;5089038;28;19920;-75
2021/10/04 11:57:30;;;;;;;;;;;;;;;-142.75;55.73;76141.19;5089978;28;20340;-75
2021/10/04 11:59:57;;;;;;;;;;;;;;;-142.75;56.44;76133.31;5089054;28;19927;-75
2021/10/04 12:02:29;;;;;;;;;;;;;;;-142.75;57.13;76149.06;5088525;28;19916;-74
2021/10/04 12:05:13;;;;;;;;;;;;;;;-142.75;58.79;76160.88;5084896;28;20374;-76
2021/10/04 12:07:53;;;;;;;;;;;;;;;-142.75;58.99;76184.50;5084231;28;19919;-75
2021/10/04 12:10:18;;;;;;;;;;;;;;;-142.75;58.13;76141.19;5068414;28;19938;-74
2021/10/04 12:12:43;;;;;;;;;;;;;;;-142.75;57.56;76206.13;5088505;28;20433;-77
2021/10/04 12:15:09;;;;;;;;;;;;;;;-142.75;59.01;76215.97;5064103;28;19920;-76
2021/10/04 12:17:35;;;;;;;;;;;;;;;-142.75;58.89;76215.97;5064295;28;21727;-76